createdAt,value
2023-01-02T00:00:31.937Z,29.40
2023-01-02T00:02:59.661Z,31.60
2023-01-02T00:05:27.694Z,30.75
2023-01-02T00:07:55.241Z,30.60
2023-01-02T00:10:22.888Z,31.40
2023-01-02T00:12:50.257Z,29.92
2023-01-02T00:15:17.603Z,31.12
2023-01-02T00:17:45.235Z,30.25
2023-01-02T00:20:12.620Z,30.10
2023-01-02T00:22:39.978Z,31.65
2023-01-02T00:25:07.839Z,30.30
2023-01-02T00:27:35.217Z,29.27
2023-01-02T00:30:02.753Z,30.52
2023-01-02T00:32:30.692Z,29.90
2023-01-02T00:34:58.050Z,32.53
2023-01-02T00:37:25.714Z,30.27
2023-01-02T00:39:53.359Z,31.52
2023-01-02T00:42:20.730Z,33.95
2023-01-02T00:44:48.110Z,30.23
2023-01-02T00:47:15.747Z,33.33
2023-01-02T00:49:43.680Z,34.50
2023-01-02T00:52:11.042Z,32.88
2023-01-02T00:54:38.664Z,31.27
2023-01-02T00:57:06.105Z,31.67
2023-01-02T00:59:34.074Z,31.90
2023-01-02T01:02:01.758Z,32.28
2023-01-02T01:04:29.225Z,33.08
2023-01-02T01:06:56.692Z,31.40
2023-01-02T01:09:24.309Z,34.85
2023-01-02T01:11:52.115Z,34.00
2023-01-02T01:14:19.484Z,37.72
2023-01-02T01:16:47.130Z,37.40
2023-01-02T01:19:14.659Z,34.35
2023-01-02T01:21:42.103Z,34.45
2023-01-02T01:24:10.395Z,29.70
2023-01-02T01:26:37.743Z,33.40
2023-01-02T01:29:05.225Z,31.60
2023-01-02T01:31:32.936Z,29.83
2023-01-02T01:34:00.292Z,31.25
2023-01-02T01:36:27.730Z,37.40
2023-01-02T01:38:55.486Z,34.85
2023-01-02T01:41:23.846Z,36.05
2023-01-02T01:43:55.035Z,35.72
2023-01-02T01:46:37.420Z,36.28
2023-01-02T01:49:13.961Z,35.35
2023-01-02T01:52:06.350Z,36.50
2023-01-02T01:54:38.826Z,38.08
2023-01-02T01:57:23.060Z,40.88
2023-01-02T01:59:50.403Z,37.58
2023-01-02T02:02:18.207Z,35.58
2023-01-02T02:04:46.042Z,39.05
2023-01-02T02:07:13.417Z,39.53
2023-01-02T02:09:49.138Z,41.50
2023-01-02T02:12:19.701Z,38.95
2023-01-02T02:14:50.607Z,39.35
2023-01-02T02:17:41.211Z,38.75
2023-01-02T02:20:20.484Z,40.20
2023-01-02T02:23:06.894Z,38.85
2023-01-02T02:25:55.826Z,39.30
2023-01-02T02:28:39.447Z,42.42
2023-01-02T02:31:22.017Z,39.38
2023-01-02T02:33:59.198Z,35.33
2023-01-02T02:36:45.295Z,36.40
2023-01-02T02:39:24.901Z,38.00
2023-01-02T02:42:26.070Z,36.90
2023-01-02T02:45:02.014Z,41.58
2023-01-02T02:47:51.586Z,64.70
2023-01-02T02:50:37.404Z,40.28
2023-01-02T02:53:09.167Z,35.83
2023-01-02T02:55:43.923Z,39.22
2023-01-02T02:58:12.358Z,47.95
2023-01-02T03:00:40.032Z,38.75
2023-01-02T03:03:21.710Z,42.03
2023-01-02T03:06:18.559Z,35.13
2023-01-02T03:09:13.706Z,46.85
2023-01-02T03:12:23.355Z,40.85
2023-01-02T03:15:15.533Z,43.57
2023-01-02T03:17:54.593Z,70.53
2023-01-02T03:20:23.227Z,37.27
2023-01-02T03:22:53.097Z,46.37
2023-01-02T03:25:20.858Z,41.17
2023-01-02T03:27:48.286Z,47.50
2023-01-02T03:30:22.299Z,49.70
2023-01-02T03:32:54.543Z,46.00
2023-01-02T03:35:28.172Z,41.90
2023-01-02T03:37:57.032Z,50.07
2023-01-02T03:40:45.878Z,43.07
2023-01-02T03:43:16.763Z,52.28
2023-01-02T03:45:48.499Z,52.10
2023-01-02T03:48:34.243Z,46.13
2023-01-02T03:51:01.878Z,40.97
2023-01-02T03:53:29.236Z,47.75
2023-01-02T03:56:08.929Z,46.20
2023-01-02T03:58:57.588Z,43.83
2023-01-02T04:01:49.641Z,44.93
2023-01-02T04:04:38.794Z,52.03
2023-01-02T04:07:08.750Z,55.27
2023-01-02T04:09:36.419Z,40.42
2023-01-02T04:12:08.563Z,46.90
2023-01-02T04:14:38.940Z,45.33
2023-01-02T04:17:08.320Z,39.90
2023-01-02T04:19:38.976Z,47.10
2023-01-02T04:22:10.136Z,38.50
2023-01-02T04:24:40.507Z,41.47
2023-01-02T04:27:23.349Z,39.15
2023-01-02T04:29:50.961Z,47.80
2023-01-02T04:32:43.929Z,36.80
2023-01-02T04:35:16.963Z,42.30
2023-01-02T04:37:44.580Z,42.37
2023-01-02T04:40:26.170Z,40.40
2023-01-02T04:42:53.647Z,42.13
2023-01-02T04:45:21.364Z,40.40
2023-01-02T04:47:48.872Z,38.10
2023-01-02T04:50:16.340Z,34.80
2023-01-02T04:52:43.922Z,40.45
2023-01-02T04:55:11.377Z,40.95
2023-01-02T04:57:38.789Z,41.28
2023-01-02T05:00:07.299Z,36.25
2023-01-02T05:02:36.374Z,36.10
2023-01-02T05:05:04.217Z,35.53
2023-01-02T05:07:33.657Z,36.55
2023-01-02T05:10:01.142Z,36.78
2023-01-02T05:12:28.481Z,35.42
2023-01-02T05:14:56.120Z,36.00
2023-01-02T05:17:23.526Z,37.63
2023-01-02T05:19:50.877Z,41.50
2023-01-02T05:22:37.286Z,37.90
2023-01-02T05:25:05.823Z,35.42
2023-01-02T05:27:34.003Z,35.85
2023-01-02T05:30:01.383Z,38.13
2023-01-02T05:32:28.721Z,34.63
2023-01-02T05:34:57.395Z,32.70
2023-01-02T05:37:24.787Z,36.38
2023-01-02T05:39:52.154Z,35.88
2023-01-02T05:42:19.763Z,37.10
2023-01-02T05:44:47.330Z,33.38
2023-01-02T05:47:16.552Z,32.30
2023-01-02T05:49:44.469Z,32.03
2023-01-02T05:52:11.913Z,31.65
2023-01-02T05:54:39.295Z,32.38
2023-01-02T05:57:06.965Z,34.95
2023-01-02T05:59:36.258Z,30.47
2023-01-02T06:02:04.029Z,30.58
2023-01-02T06:04:31.716Z,29.15
2023-01-02T06:06:59.351Z,29.63
2023-01-02T06:09:26.819Z,37.50
2023-01-02T06:11:54.443Z,41.40
2023-01-02T06:14:24.040Z,32.35
2023-01-02T06:16:51.403Z,32.67
2023-01-02T06:19:19.005Z,32.00
2023-01-02T06:21:46.847Z,35.50
2023-01-02T06:24:14.204Z,30.77
2023-01-02T06:26:41.799Z,28.83
2023-01-02T06:29:09.179Z,29.40
2023-01-02T06:31:39.720Z,30.30
2023-01-02T06:34:07.657Z,28.55
2023-01-02T06:36:35.036Z,30.23
2023-01-02T06:39:02.499Z,29.10
2023-01-02T06:41:30.183Z,31.58
2023-01-02T06:43:57.561Z,31.65
2023-01-02T06:46:25.142Z,29.80
2023-01-02T06:48:52.784Z,28.12
2023-01-02T06:51:21.722Z,28.70
2023-01-02T06:53:49.180Z,28.12
2023-01-02T06:56:17.425Z,28.67
2023-01-02T06:58:44.907Z,31.15
2023-01-02T07:01:22.454Z,27.10
2023-01-02T07:03:50.270Z,28.00
2023-01-02T07:06:19.551Z,28.25
2023-01-02T07:08:47.289Z,28.33
2023-01-02T07:11:16.781Z,31.75
2023-01-02T07:13:45.733Z,30.10
2023-01-02T07:16:14.711Z,30.85
2023-01-02T07:18:42.471Z,30.60
2023-01-02T07:21:10.211Z,29.65
2023-01-02T07:23:37.635Z,28.30
2023-01-02T07:26:05.905Z,30.98
2023-01-02T07:28:33.457Z,30.27
2023-01-02T07:31:02.363Z,27.40
2023-01-02T07:33:30.260Z,31.73
2023-01-02T07:36:02.012Z,29.42
2023-01-02T07:38:29.666Z,28.60
2023-01-02T07:40:57.061Z,26.65
2023-01-02T07:43:24.463Z,30.73
2023-01-02T07:45:52.163Z,27.10
2023-01-02T07:48:19.761Z,26.60
2023-01-02T07:50:47.108Z,29.90
2023-01-02T07:53:14.726Z,29.10
2023-01-02T07:55:42.130Z,27.95
2023-01-02T07:58:09.484Z,28.70
2023-01-02T08:00:37.275Z,27.35
2023-01-02T08:03:06.046Z,27.52
2023-01-02T08:05:34.258Z,29.02
2023-01-02T08:08:01.595Z,28.30
2023-01-02T08:10:29.221Z,25.45
2023-01-02T08:12:57.451Z,26.77
2023-01-02T08:15:25.401Z,28.12
2023-01-02T08:17:53.119Z,29.12
2023-01-02T08:20:20.468Z,28.70
2023-01-02T08:22:47.870Z,28.48
2023-01-02T08:25:16.733Z,29.67
2023-01-02T08:27:44.183Z,28.37
2023-01-02T08:30:11.842Z,30.58
2023-01-02T08:32:39.828Z,31.07
2023-01-02T08:35:07.647Z,31.33
2023-01-02T08:37:35.126Z,32.55
2023-01-02T08:40:02.856Z,32.20
2023-01-02T08:42:30.254Z,30.05
2023-01-02T08:44:57.729Z,29.40
2023-01-02T08:47:25.412Z,30.77
2023-01-02T08:49:52.952Z,28.75
2023-01-02T08:52:20.324Z,28.83
2023-01-02T08:54:47.916Z,30.17
2023-01-02T08:57:15.273Z,29.17
2023-01-02T08:59:42.638Z,27.90
2023-01-02T09:02:14.421Z,28.00
2023-01-02T09:04:41.939Z,29.45
2023-01-02T09:07:09.717Z,28.15
2023-01-02T09:09:37.188Z,26.98
2023-01-02T09:12:04.814Z,28.80
2023-01-02T09:14:32.499Z,28.45
2023-01-02T09:16:59.937Z,30.02
2023-01-02T09:19:27.393Z,26.10
2023-01-02T09:21:55.135Z,28.87
2023-01-02T09:24:22.473Z,27.83
2023-01-02T09:26:49.897Z,29.17
2023-01-02T09:29:17.609Z,29.50
2023-01-02T09:31:45.062Z,28.10
2023-01-02T09:34:12.614Z,31.60
2023-01-02T09:36:40.269Z,25.80
2023-01-02T09:39:08.841Z,26.95
2023-01-02T09:41:37.185Z,25.27
2023-01-02T09:44:27.425Z,27.65
2023-01-02T09:46:54.699Z,28.80
2023-01-02T09:49:24.476Z,29.20
2023-01-02T09:51:51.943Z,27.50
2023-01-02T09:54:26.808Z,28.42
2023-01-02T09:57:14.530Z,26.33
2023-01-02T10:00:04.829Z,25.80
2023-01-02T10:02:56.741Z,25.05
2023-01-02T10:05:42.874Z,24.42
2023-01-02T10:08:37.890Z,25.40
2023-01-02T10:11:17.613Z,24.92
2023-01-02T10:16:44.868Z,25.33
2023-01-02T10:19:42.898Z,26.80
2023-01-02T10:22:13.718Z,26.40
2023-01-02T10:25:18.933Z,27.20
2023-01-02T10:27:49.776Z,29.87
2023-01-02T10:30:24.851Z,29.52
2023-01-02T10:32:58.631Z,29.52
2023-01-02T10:35:32.857Z,29.33
2023-01-02T10:38:00.666Z,31.23
2023-01-02T10:40:28.090Z,34.80
2023-01-02T10:42:59.888Z,34.00
2023-01-02T10:45:27.896Z,33.38
2023-01-02T10:47:55.248Z,31.40
2023-01-02T10:50:25.503Z,32.38
2023-01-02T10:52:54.502Z,32.45
2023-01-02T10:55:37.521Z,34.08
2023-01-02T10:58:06.567Z,31.92
2023-01-02T11:00:35.331Z,30.33
2023-01-02T11:03:12.783Z,30.05
2023-01-02T11:05:48.352Z,28.67
2023-01-02T11:08:17.803Z,30.70
2023-01-02T11:10:45.592Z,30.80
2023-01-02T11:13:14.719Z,28.42
2023-01-02T11:15:58.255Z,28.27
2023-01-02T11:18:27.278Z,27.92
2023-01-02T11:20:56.968Z,28.65
2023-01-02T11:23:25.488Z,27.50
2023-01-02T11:25:53.175Z,30.58
2023-01-02T11:28:25.711Z,28.60
2023-01-02T11:30:54.566Z,28.02
2023-01-02T11:33:24.844Z,27.33
2023-01-02T11:36:04.560Z,31.52
2023-01-02T11:38:44.061Z,32.08
2023-01-02T11:41:25.817Z,30.05
2023-01-02T11:43:57.276Z,28.87
2023-01-02T11:46:30.026Z,28.48
2023-01-02T11:49:07.689Z,28.48
2023-01-02T11:51:35.798Z,28.35
2023-01-02T11:54:05.023Z,28.25
2023-01-02T11:56:34.926Z,30.98
2023-01-02T11:59:11.957Z,30.23
2023-01-02T12:01:48.258Z,28.12
2023-01-02T12:04:16.068Z,28.52
2023-01-02T12:07:27.941Z,28.35
2023-01-02T12:10:08.850Z,29.02
2023-01-02T12:12:36.091Z,27.45
2023-01-02T12:15:06.561Z,28.55
2023-01-02T12:17:39.634Z,29.70
2023-01-02T12:20:30.516Z,39.88
2023-01-02T12:23:34.315Z,30.23
2023-01-02T12:26:09.685Z,26.05
2023-01-02T12:28:55.763Z,28.17
2023-01-02T12:31:29.307Z,28.08
2023-01-02T12:34:20.758Z,27.50
2023-01-02T12:37:10.307Z,28.20
2023-01-02T12:39:54.326Z,26.58
2023-01-02T12:43:01.742Z,26.58
2023-01-02T12:45:59.971Z,26.05
2023-01-02T12:48:54.958Z,26.77
2023-01-02T12:51:47.228Z,25.88
2023-01-02T12:54:36.608Z,24.92
2023-01-02T12:57:24.334Z,25.75
2023-01-02T13:00:16.448Z,26.05
2023-01-02T13:03:00.228Z,26.85
2023-01-02T13:05:31.323Z,25.62
2023-01-02T13:08:19.793Z,27.67
2023-01-02T13:10:47.452Z,26.55
2023-01-02T13:13:14.826Z,24.92
2023-01-02T13:15:44.262Z,24.80
2023-01-02T13:18:24.082Z,26.98
2023-01-02T13:20:53.726Z,24.52
2023-01-02T13:23:43.920Z,25.35
2023-01-02T13:26:13.134Z,25.50
2023-01-02T13:28:54.312Z,24.23
2023-01-02T13:31:48.581Z,25.37
2023-01-02T13:34:25.883Z,23.80
2023-01-02T13:37:10.200Z,24.63
2023-01-02T13:39:40.684Z,24.55
2023-01-02T13:42:38.581Z,25.17
2023-01-02T13:45:14.452Z,24.80
2023-01-02T13:47:50.998Z,25.30
2023-01-02T13:50:25.320Z,25.15
2023-01-02T13:53:20.861Z,25.42
2023-01-02T13:56:12.620Z,26.08
2023-01-02T13:58:41.904Z,24.83
2023-01-02T14:01:21.603Z,26.98
2023-01-02T14:04:07.731Z,28.10
2023-01-02T14:06:53.371Z,28.92
2023-01-02T14:09:22.424Z,28.62
2023-01-02T14:11:59.741Z,27.33
2023-01-02T14:14:44.708Z,29.80
2023-01-02T14:17:15.270Z,28.55
2023-01-02T14:19:43.625Z,28.35
2023-01-02T14:22:13.228Z,30.90
2023-01-02T14:24:50.252Z,29.52
2023-01-02T14:27:32.310Z,29.37
2023-01-02T14:30:08.747Z,28.50
2023-01-02T14:32:40.838Z,28.98
2023-01-02T14:35:23.452Z,29.63
2023-01-02T14:37:54.953Z,28.02
2023-01-02T14:40:22.116Z,30.08
2023-01-02T14:43:11.993Z,29.67
2023-01-02T14:45:44.729Z,28.77
2023-01-02T14:48:15.593Z,29.12
2023-01-02T14:50:43.471Z,30.00
2023-01-02T14:53:20.163Z,30.27
2023-01-02T14:55:47.789Z,30.90
2023-01-02T14:58:22.408Z,28.50
2023-01-02T15:00:50.046Z,32.97
2023-01-02T15:03:17.832Z,36.35
2023-01-02T15:05:49.682Z,32.83
2023-01-02T15:08:20.163Z,32.47
2023-01-02T15:11:35.556Z,32.72
2023-01-02T15:16:38.258Z,32.25
2023-01-02T15:19:05.932Z,32.75
2023-01-02T15:21:34.302Z,34.17
2023-01-02T15:24:04.065Z,32.42
2023-01-02T15:26:35.880Z,33.38
2023-01-02T15:29:05.166Z,32.28
2023-01-02T15:31:33.089Z,31.60
2023-01-02T15:34:00.679Z,35.17
2023-01-02T15:36:37.880Z,34.40
2023-01-02T15:39:14.244Z,31.98
2023-01-02T15:41:43.609Z,35.53
2023-01-02T15:44:30.198Z,33.50
2023-01-02T15:49:25.253Z,32.65
2023-01-02T15:51:52.681Z,33.03
2023-01-02T15:54:20.169Z,34.78
2023-01-02T15:56:47.798Z,36.03
2023-01-02T15:59:30.233Z,34.60
2023-01-02T16:01:57.966Z,37.95
2023-01-02T16:04:30.103Z,39.00
2023-01-02T16:06:58.419Z,37.85
2023-01-02T16:09:27.924Z,35.88
2023-01-02T16:11:57.391Z,36.60
2023-01-02T16:14:37.232Z,33.83
2023-01-02T16:17:05.647Z,34.95
2023-01-02T16:19:34.302Z,34.60
2023-01-02T16:22:10.748Z,34.70
2023-01-02T16:27:13.454Z,34.85
2023-01-02T16:29:42.480Z,36.45
2023-01-02T16:32:27.177Z,36.00
2023-01-02T16:35:18.289Z,37.58
2023-01-02T16:37:55.611Z,37.35
2023-01-02T16:41:00.555Z,41.92
2023-01-02T16:43:16.294Z,43.78
2023-01-02T16:45:44.223Z,43.17
2023-01-02T16:48:13.920Z,40.28
2023-01-02T16:50:42.722Z,41.65
2023-01-02T16:53:12.907Z,47.15
2023-01-02T16:55:40.367Z,47.42
2023-01-02T16:58:07.747Z,41.25
2023-01-02T17:00:41.370Z,45.33
2023-01-02T17:03:18.683Z,45.50
2023-01-02T17:06:07.553Z,41.57
2023-01-02T17:08:34.964Z,40.88
2023-01-02T17:11:02.662Z,39.10
2023-01-02T17:13:30.001Z,43.30
2023-01-02T17:15:57.815Z,42.05
2023-01-02T17:18:25.628Z,39.85
2023-01-02T17:20:52.982Z,39.08
2023-01-02T17:23:21.082Z,39.40
2023-01-02T17:25:48.821Z,40.25
2023-01-02T17:28:16.330Z,40.50
2023-01-02T17:30:44.522Z,39.72
2023-01-02T17:33:13.286Z,37.20
2023-01-02T17:35:40.751Z,35.83
2023-01-02T17:38:08.139Z,33.58
2023-01-02T17:40:37.244Z,32.65
2023-01-02T17:43:04.927Z,36.13
2023-01-02T17:45:32.430Z,33.80
2023-01-02T17:48:07.417Z,35.42
2023-01-02T17:50:37.814Z,37.65
2023-01-02T17:53:07.928Z,35.58
2023-01-02T17:55:35.351Z,37.22
2023-01-02T17:58:03.887Z,37.53
2023-01-02T18:00:31.573Z,33.20
2023-01-02T18:02:59.353Z,34.30
2023-01-02T18:05:26.769Z,37.95
2023-01-02T18:07:54.123Z,34.33
2023-01-02T18:10:23.054Z,39.88
2023-01-02T18:12:53.539Z,39.55
2023-01-02T18:15:21.900Z,38.95
2023-01-02T18:17:49.646Z,37.53
2023-01-02T18:20:19.071Z,35.67
2023-01-02T18:22:49.888Z,38.53
2023-01-02T18:25:19.359Z,41.20
2023-01-02T18:27:47.566Z,41.70
2023-01-02T18:30:23.652Z,39.70
2023-01-02T18:32:57.352Z,40.47
2023-01-02T18:35:56.846Z,40.38
2023-01-02T18:38:38.050Z,42.15
2023-01-02T18:41:23.984Z,46.30
2023-01-02T18:43:54.989Z,37.38
2023-01-02T18:47:02.161Z,56.88
2023-01-02T18:49:22.015Z,37.67
2023-01-02T18:51:54.715Z,43.38
2023-01-02T18:54:28.882Z,42.53
2023-01-02T18:56:59.082Z,42.10
2023-01-02T18:59:29.427Z,43.45
2023-01-02T19:02:00.809Z,52.13
2023-01-02T19:04:35.161Z,37.20
2023-01-02T19:07:16.632Z,47.75
2023-01-02T19:09:44.241Z,41.05
2023-01-02T19:12:33.118Z,39.45
2023-01-02T19:15:22.651Z,50.80
2023-01-02T19:17:50.071Z,39.38
2023-01-02T19:20:17.741Z,38.85
2023-01-02T19:22:45.072Z,40.95
2023-01-02T19:25:19.001Z,59.33
2023-01-02T19:27:46.601Z,51.17
2023-01-02T19:30:29.937Z,52.05
2023-01-02T19:32:57.833Z,44.67
2023-01-02T19:35:25.020Z,60.17
2023-01-02T19:37:52.449Z,47.33
2023-01-02T19:40:21.599Z,46.80
2023-01-02T19:42:53.136Z,55.00
2023-01-02T19:45:24.622Z,41.42
2023-01-02T19:47:52.518Z,46.53
2023-01-02T19:50:25.375Z,41.45
2023-01-02T19:52:53.262Z,62.35
2023-01-02T19:55:20.661Z,58.60
2023-01-02T19:57:48.501Z,47.90
2023-01-02T20:00:16.899Z,50.33
2023-01-02T20:02:52.235Z,48.67
2023-01-02T20:05:22.523Z,65.03
2023-01-02T20:07:51.915Z,39.63
2023-01-02T20:10:19.265Z,78.10
2023-01-02T20:12:46.671Z,52.03
2023-01-02T20:15:19.562Z,44.50
2023-01-02T20:17:47.170Z,77.15
2023-01-02T20:20:19.847Z,79.90
2023-01-02T20:22:47.484Z,40.92
2023-01-02T20:25:15.787Z,41.33
2023-01-02T20:27:43.128Z,77.35
2023-01-02T20:30:11.361Z,54.33
2023-01-02T20:32:39.013Z,37.03
2023-01-02T20:35:06.603Z,80.47
2023-01-02T20:37:34.382Z,83.70
2023-01-02T20:40:02.004Z,103.90
2023-01-02T20:42:29.457Z,73.40
2023-01-02T20:44:56.819Z,54.35
2023-01-02T20:47:24.445Z,40.88
2023-01-02T20:49:51.843Z,79.78
2023-01-02T20:52:20.335Z,48.35
2023-01-02T20:57:18.281Z,84.70
2023-01-02T20:59:45.796Z,63.00
2023-01-02T21:02:13.589Z,37.03
2023-01-02T21:04:41.059Z,67.37
2023-01-02T21:07:08.607Z,60.08
2023-01-02T21:09:36.227Z,49.03
2023-01-02T21:12:03.795Z,61.53
2023-01-02T21:14:37.379Z,67.32
2023-01-02T21:17:05.495Z,86.68
2023-01-02T21:19:33.021Z,83.40
2023-01-02T21:22:00.513Z,93.32
2023-01-02T21:24:28.137Z,83.37
2023-01-02T21:26:55.538Z,40.78
2023-01-02T21:29:22.921Z,54.58
2023-01-02T21:31:50.613Z,90.80
2023-01-02T21:34:18.180Z,77.80
2023-01-02T21:36:45.611Z,94.13
2023-01-02T21:39:13.263Z,89.57
2023-01-02T21:42:00.152Z,36.42
2023-01-02T21:44:27.721Z,88.60
2023-01-02T21:46:55.244Z,111.60
2023-01-02T21:49:22.668Z,106.82
2023-01-02T21:51:52.664Z,69.22
2023-01-02T21:54:20.055Z,86.23
2023-01-02T21:56:47.474Z,49.95
2023-01-02T21:59:15.074Z,55.50
2023-01-02T22:01:42.608Z,56.00
2023-01-02T22:04:11.676Z,77.85
2023-01-02T22:06:57.115Z,78.65
2023-01-02T22:09:28.151Z,80.68
2023-01-02T22:11:55.503Z,85.60
2023-01-02T22:14:30.430Z,65.40
2023-01-02T22:17:06.023Z,75.00
2023-01-02T22:19:33.609Z,77.93
2023-01-02T22:22:01.576Z,72.13
2023-01-02T22:24:29.031Z,74.73
2023-01-02T22:26:58.165Z,60.80
2023-01-02T22:29:33.139Z,52.23
2023-01-02T22:32:11.799Z,52.67
2023-01-02T22:34:43.341Z,42.03
2023-01-02T22:37:13.656Z,40.73
2023-01-02T22:39:43.308Z,50.73
2023-01-02T22:42:59.687Z,43.03
2023-01-02T22:45:27.096Z,37.50
2023-01-02T22:47:58.570Z,28.27
2023-01-02T22:50:28.553Z,30.33
2023-01-02T22:52:56.097Z,39.60
2023-01-02T22:55:24.016Z,33.80
2023-01-02T22:57:52.158Z,33.37
2023-01-02T23:00:22.243Z,38.17
2023-01-02T23:02:50.107Z,37.53
2023-01-02T23:05:19.109Z,26.80
2023-01-02T23:07:46.635Z,25.77
2023-01-02T23:10:14.173Z,36.47
2023-01-02T23:12:41.837Z,41.27
2023-01-02T23:15:11.350Z,34.03
2023-01-02T23:17:57.744Z,31.50
2023-01-02T23:20:26.113Z,35.13
2023-01-02T23:22:53.498Z,33.73
2023-01-02T23:25:21.011Z,29.30
2023-01-02T23:27:48.745Z,23.73
2023-01-02T23:30:16.194Z,22.43
2023-01-02T23:32:45.189Z,29.93
2023-01-02T23:35:12.831Z,23.07
2023-01-02T23:37:40.199Z,24.60
2023-01-02T23:40:08.293Z,27.00
2023-01-02T23:42:35.940Z,22.53
2023-01-02T23:45:03.453Z,23.70
2023-01-02T23:47:31.358Z,20.90
2023-01-02T23:49:59.057Z,19.83
2023-01-02T23:52:26.430Z,29.57
2023-01-02T23:54:53.747Z,31.57
2023-01-02T23:57:21.405Z,31.97
2023-01-02T23:59:48.732Z,41.53
